Time;durP1;ratioP1;P1;durP2;ratioP2;P2;SDS_P1;SDS_P2;PMS_P1;PMS_P2;Temp;Humidity;BMP_temperature;BMP_pressure;BME280_temperature;BME280_humidity;BME280_pressure;Samples;Min_cycle;Max_cycle;Signal;HPM_P1;HPM_P2
2023/09/26 00:00:23;;;;;;;9.50;7.30;;;;;;;11.87;94.95;101511.35;105610;1256;83577;-61
2023/09/26 00:03:12;;;;;;;10.50;7.60;;;;;;;11.85;95.11;101504.02;105569;1256;74952;-61
2023/09/26 00:05:42;;;;;;;8.80;7.20;;;;;;;11.81;94.83;101507.94;105596;1255;69177;-61
2023/09/26 00:08:11;;;;;;;9.40;7.20;;;;;;;11.79;95.22;101508.89;105538;1252;69078;-61
2023/09/26 00:10:39;;;;;;;8.40;6.60;;;;;;;11.82;95.79;101507.04;105586;1256;75082;-61
2023/09/26 00:13:08;;;;;;;9.80;6.90;;;;;;;11.83;95.67;101507.89;105620;1256;83648;-61
2023/09/26 00:15:37;;;;;;;10.20;7.30;;;;;;;11.84;96.08;101505.25;105636;1253;72645;-61
2023/09/26 00:18:06;;;;;;;10.80;7.90;;;;;;;11.85;96.04;101502.78;105557;1253;69168;-61
2023/09/26 00:20:37;;;;;;;9.00;6.70;;;;;;;11.88;96.41;101502.02;105777;1256;69118;-61
2023/09/26 00:23:06;;;;;;;10.90;7.70;;;;;;;11.89;96.22;101501.84;105607;1251;74699;-61
2023/09/26 00:25:35;;;;;;;8.80;6.90;;;;;;;11.90;96.15;101498.14;105745;1256;82189;-62
2023/09/26 00:28:04;;;;;;;8.60;7.50;;;;;;;11.89;96.08;101495.02;105575;1253;73208;-62
2023/09/26 00:30:32;;;;;;;9.30;7.20;;;;;;;11.89;96.23;101497.46;105628;1255;69166;-61
2023/09/26 00:33:01;;;;;;;9.00;7.00;;;;;;;11.88;96.07;101496.78;105555;1254;69190;-61
2023/09/26 00:35:29;;;;;;;10.80;7.40;;;;;;;11.85;95.92;101496.14;105583;1253;74950;-61
2023/09/26 00:37:59;;;;;;;9.90;7.40;;;;;;;11.84;96.23;101487.56;105460;1253;83304;-61
2023/09/26 00:40:28;;;;;;;9.60;6.80;;;;;;;11.84;96.11;101489.15;105461;1253;71722;-61
2023/09/26 00:43:00;;;;;;;10.40;7.90;;;;;;;11.83;96.18;101488.80;105408;1252;69136;-61
2023/09/26 00:45:28;;;;;;;12.30;7.80;;;;;;;11.83;96.24;101486.35;105479;1256;69184;-61
2023/09/26 00:47:58;;;;;;;8.90;7.30;;;;;;;11.81;96.05;101483.95;105483;1253;74810;-61
2023/09/26 00:50:27;;;;;;;9.30;6.80;;;;;;;11.78;96.13;101483.66;105550;1257;83667;-62
2023/09/26 00:52:55;;;;;;;8.80;7.30;;;;;;;11.77;96.06;101480.20;105484;1254;73357;-61
2023/09/26 00:55:24;;;;;;;10.50;8.00;;;;;;;11.76;96.04;101481.27;105429;1256;69250;-61
2023/09/26 00:57:54;;;;;;;13.70;8.20;;;;;;;11.74;96.15;101480.95;105610;1255;69200;-61
2023/09/26 01:00:24;;;;;;;10.80;7.90;;;;;;;11.73;95.97;101478.38;105439;1257;74259;-61
2023/09/26 01:02:52;;;;;;;13.90;9.20;;;;;;;11.70;96.07;101480.71;105460;1256;82245;-61
2023/09/26 01:05:22;;;;;;;15.20;9.30;;;;;;;11.71;96.18;101482.83;105485;1253;72429;-61
2023/09/26 01:07:53;;;;;;;13.60;9.90;;;;;;;11.69;96.10;101484.08;105468;1254;69050;-61
2023/09/26 01:10:21;;;;;;;16.00;10.30;;;;;;;11.67;96.19;101480.81;105451;1258;69171;-61
2023/09/26 01:12:50;;;;;;;13.70;9.30;;;;;;;11.65;96.17;101482.94;105470;1253;74771;-61
2023/09/26 01:15:38;;;;;;;12.60;9.00;;;;;;;11.63;96.08;101488.42;105628;1256;83278;-61
2023/09/26 01:18:09;;;;;;;9.90;8.20;;;;;;;11.60;96.05;101489.02;105608;1256;73587;-62
2023/09/26 01:20:39;;;;;;;8.20;7.00;;;;;;;11.58;96.19;101485.92;105452;1256;69149;-61
2023/09/26 01:23:10;;;;;;;8.50;6.90;;;;;;;11.57;96.37;101484.18;105478;1256;69123;-62
2023/09/26 01:25:40;;;;;;;8.70;7.40;;;;;;;11.54;96.15;101479.52;105475;1256;74871;-61
2023/09/26 01:28:10;;;;;;;9.20;5.80;;;;;;;11.53;96.37;101479.40;105500;1253;82728;-61
2023/09/26 01:30:39;;;;;;;10.20;6.40;;;;;;;11.51;96.61;101477.88;105409;1259;72884;-62
2023/09/26 01:33:08;;;;;;;7.80;5.30;;;;;;;11.50;96.48;101475.08;105505;1256;69172;-61
2023/09/26 01:35:37;;;;;;;5.80;4.80;;;;;;;11.52;96.98;101481.16;105507;1256;69625;-61
2023/09/26 01:38:05;;;;;;;6.70;4.90;;;;;;;11.50;96.68;101480.84;105541;1255;73811;-61
2023/09/26 01:40:34;;;;;;;7.10;5.60;;;;;;;11.49;96.60;101482.28;105568;1256;83357;-61
2023/09/26 01:43:03;;;;;;;6.80;5.50;;;;;;;11.47;96.84;101485.46;105741;1254;71937;-61
2023/09/26 01:45:32;;;;;;;7.20;5.40;;;;;;;11.47;96.62;101484.59;105634;1252;68996;-61
2023/09/26 01:48:01;;;;;;;8.30;5.60;;;;;;;11.46;96.72;101483.58;105630;1252;69094;-61
2023/09/26 01:50:30;;;;;;;6.70;5.60;;;;;;;11.45;96.78;101489.21;105586;1256;73871;-61
2023/09/26 01:52:58;;;;;;;7.80;6.20;;;;;;;11.43;96.74;101487.85;105545;1256;81807;-61
2023/09/26 01:55:26;;;;;;;9.00;6.80;;;;;;;11.43;96.86;101489.42;105550;1256;73119;-61
2023/09/26 01:57:56;;;;;;;8.20;6.00;;;;;;;11.45;96.98;101490.27;105671;1259;69169;-61
2023/09/26 02:00:24;;;;;;;9.90;7.40;;;;;;;11.45;97.09;101489.39;105538;1259;69192;-61
2023/09/26 02:02:53;;;;;;;7.70;6.80;;;;;;;11.44;97.19;101487.30;105634;1256;74894;-61
2023/09/26 02:05:22;;;;;;;9.60;7.70;;;;;;;11.46;97.77;101484.97;105547;1255;83250;-61
2023/09/26 02:07:50;;;;;;;15.10;8.20;;;;;;;11.49;97.64;101484.36;105499;1257;73782;-61
2023/09/26 02:10:19;;;;;;;12.50;8.20;;;;;;;11.48;97.53;101483.01;105437;1259;69242;-61
2023/09/26 02:12:50;;;;;;;11.30;7.70;;;;;;;11.47;97.32;101476.54;105471;1257;69163;-61
2023/09/26 02:15:19;;;;;;;12.30;8.80;;;;;;;11.46;97.43;101478.16;105488;1257;74227;-61
2023/09/26 02:17:47;;;;;;;12.60;8.90;;;;;;;11.46;97.56;101475.69;105601;1256;83362;-61
2023/09/26 02:20:17;;;;;;;18.90;10.00;;;;;;;11.45;97.49;101476.95;105561;1256;73704;-61
2023/09/26 02:22:49;;;;;;;;;;;;;;;11.43;97.43;101477.34;105492;1258;69241;-61
2023/09/26 02:25:19;;;;;;;9.60;8.10;;;;;;;11.43;97.53;101479.96;105736;1251;69175;-61
2023/09/26 02:27:49;;;;;;;13.20;8.50;;;;;;;11.45;97.74;101478.02;105492;1256;74833;-61
2023/09/26 02:30:19;;;;;;;13.00;8.50;;;;;;;11.45;97.68;101478.19;105579;1264;84213;-61
2023/09/26 02:32:49;;;;;;;12.90;8.50;;;;;;;11.45;97.92;101476.60;105793;1255;72686;-61
2023/09/26 02:35:21;;;;;;;10.10;7.70;;;;;;;11.45;97.92;101478.02;105471;1259;69141;-61
2023/09/26 02:37:49;;;;;;;13.50;7.80;;;;;;;11.43;97.61;101479.96;105453;1257;69183;-61
2023/09/26 02:40:17;;;;;;;11.50;7.60;;;;;;;11.44;97.76;101477.67;105551;1256;75115;-61
2023/09/26 02:42:46;;;;;;;9.40;7.40;;;;;;;11.44;97.81;101475.40;105549;1260;82252;-61
2023/09/26 02:45:15;;;;;;;9.60;6.80;;;;;;;11.42;97.77;101473.16;105579;1256;72668;-61
2023/09/26 02:47:43;;;;;;;9.20;6.80;;;;;;;11.43;98.07;101469.10;105574;1252;69150;-61
2023/09/26 02:50:13;;;;;;;8.50;6.80;;;;;;;11.46;98.12;101471.50;105594;1258;69113;-61
2023/09/26 02:52:43;;;;;;;11.50;7.90;;;;;;;11.49;98.52;101470.20;105479;1256;74826;-61
2023/09/26 02:55:11;;;;;;;11.10;8.10;;;;;;;11.54;98.65;101472.01;105438;1251;83760;-61
2023/09/26 02:57:40;;;;;;;12.00;7.40;;;;;;;11.57;98.72;101471.60;105533;1257;73566;-61
2023/09/26 03:00:16;;;;;;;10.40;7.40;;;;;;;11.59;98.79;101471.55;105399;1254;69080;-61
2023/09/26 03:02:46;;;;;;;12.30;7.60;;;;;;;11.61;99.06;101470.42;105572;1251;69086;-61
2023/09/26 03:05:16;;;;;;;;;;;;;;;11.64;99.19;101472.81;105600;1256;74159;-61
2023/09/26 03:07:45;;;;;;;16.60;8.80;;;;;;;11.67;99.28;101473.45;105563;1257;83294;-61
2023/09/26 03:10:14;;;;;;;14.20;9.20;;;;;;;11.68;99.46;101475.16;105475;1257;73391;-61
2023/09/26 03:12:44;;;;;;;16.40;9.40;;;;;;;11.71;99.48;101476.85;105593;1257;69179;-61
2023/09/26 03:15:14;;;;;;;14.10;9.60;;;;;;;11.73;99.39;101475.93;105473;1258;69077;-61
2023/09/26 03:17:43;;;;;;;12.10;8.70;;;;;;;11.73;99.43;101478.73;105542;1256;73846;-61
2023/09/26 03:20:15;;;;;;;13.20;8.20;;;;;;;11.73;99.37;101474.16;105617;1256;83380;-61
2023/09/26 03:22:44;;;;;;;14.20;9.10;;;;;;;11.73;99.57;101475.05;105613;1256;72890;-61
2023/09/26 03:25:13;;;;;;;13.40;8.60;;;;;;;11.73;99.61;101471.56;105565;1257;69125;-61
2023/09/26 03:27:45;;;;;;;11.70;8.90;;;;;;;11.73;99.60;101468.40;105473;1256;69096;-61
2023/09/26 03:30:17;;;;;;;14.70;8.90;;;;;;;11.73;99.56;101470.16;105510;1257;73860;-61
2023/09/26 03:32:45;;;;;;;14.20;9.10;;;;;;;11.73;99.78;101466.98;105565;1255;82282;-61
2023/09/26 03:35:14;;;;;;;14.80;8.30;;;;;;;11.74;99.88;101464.68;105497;1255;73440;-61
2023/09/26 03:37:42;;;;;;;12.30;9.00;;;;;;;11.74;99.73;101466.78;105708;1256;69181;-61
2023/09/26 03:40:11;;;;;;;13.40;9.30;;;;;;;11.73;99.80;101464.00;105617;1256;69109;-61
2023/09/26 03:42:39;;;;;;;13.40;9.90;;;;;;;11.76;99.95;101458.34;105606;1256;74817;-60
2023/09/26 03:45:08;;;;;;;12.10;9.20;;;;;;;11.78;100.00;101457.23;105589;1255;83351;-61
2023/09/26 03:47:37;;;;;;;14.10;9.20;;;;;;;11.81;100.00;101456.98;105578;1256;72621;-61
2023/09/26 03:50:06;;;;;;;11.90;9.10;;;;;;;11.84;100.00;101456.91;105548;1251;69000;-61
2023/09/26 03:52:35;;;;;;;12.80;9.90;;;;;;;11.85;100.00;101455.32;105688;1254;69189;-61
2023/09/26 03:55:04;;;;;;;12.00;9.40;;;;;;;11.88;100.00;101456.33;105542;1257;75061;-61
2023/09/26 03:57:33;;;;;;;14.40;9.80;;;;;;;11.91;100.00;101453.45;105688;1256;83159;-61
2023/09/26 04:00:36;;;;;;;14.90;9.60;;;;;;;11.93;100.00;101452.70;105531;1253;73665;-61
2023/09/26 04:02:57;;;;;;;11.20;8.40;;;;;;;11.95;100.00;101450.52;105594;1254;69197;-61
2023/09/26 04:05:26;;;;;;;11.20;8.60;;;;;;;11.96;100.00;101450.52;105523;1256;69122;-61
2023/09/26 04:07:54;;;;;;;11.40;9.00;;;;;;;11.99;100.00;101445.86;105587;1257;74649;-61
2023/09/26 04:10:22;;;;;;;12.20;9.30;;;;;;;12.04;100.00;101451.35;105587;1256;83240;-61
2023/09/26 04:12:51;;;;;;;16.80;9.20;;;;;;;12.08;100.00;101450.18;105581;1256;73699;-61
2023/09/26 04:15:20;;;;;;;13.70;8.80;;;;;;;12.12;100.00;101451.64;105508;1254;69088;-61
2023/09/26 04:17:48;;;;;;;13.60;9.00;;;;;;;12.15;100.00;101450.19;105605;1255;69155;-61
2023/09/26 04:20:19;;;;;;;14.90;9.90;;;;;;;12.20;100.00;101446.90;105580;1256;74205;-61
2023/09/26 04:23:04;;;;;;;17.10;9.40;;;;;;;12.23;100.00;101450.14;105574;1256;83419;-61
2023/09/26 04:25:33;;;;;;;15.60;8.70;;;;;;;12.25;100.00;101452.55;105689;1251;73886;-61
2023/09/26 04:28:02;;;;;;;13.00;9.00;;;;;;;12.26;100.00;101458.27;105581;1254;69251;-61
2023/09/26 04:30:36;;;;;;;16.30;9.60;;;;;;;12.29;100.00;101461.02;105656;1252;69182;-61
2023/09/26 04:33:08;;;;;;;15.20;9.60;;;;;;;12.34;100.00;101464.05;105678;1255;75015;-61
2023/09/26 04:35:37;;;;;;;12.30;9.40;;;;;;;12.36;100.00;101461.36;105602;1254;82448;-61
2023/09/26 04:38:05;;;;;;;15.40;10.10;;;;;;;12.37;100.00;101459.04;105672;1256;72608;-61
2023/09/26 04:40:34;;;;;;;14.00;9.00;;;;;;;12.40;100.00;101458.44;105549;1251;69163;-61
2023/09/26 04:43:04;;;;;;;11.40;8.80;;;;;;;12.42;100.00;101459.27;105510;1251;69104;-61
2023/09/26 04:45:33;;;;;;;11.20;8.90;;;;;;;12.44;100.00;101460.79;105602;1251;73806;-61
2023/09/26 04:48:02;;;;;;;12.90;8.80;;;;;;;12.48;100.00;101464.00;105535;1264;83662;-61
2023/09/26 04:50:30;;;;;;;12.20;7.80;;;;;;;12.51;100.00;101466.37;105674;1254;73701;-61
2023/09/26 04:52:59;;;;;;;12.20;8.90;;;;;;;12.54;100.00;101471.02;105610;1252;69177;-61
2023/09/26 04:55:27;;;;;;;10.50;8.00;;;;;;;12.57;100.00;101470.59;105601;1254;69229;-61
2023/09/26 04:57:56;;;;;;;15.50;9.00;;;;;;;12.60;100.00;101469.98;105574;1251;74846;-61
2023/09/26 05:00:24;;;;;;;9.50;8.50;;;;;;;12.63;100.00;101471.83;105608;1256;83194;-61
2023/09/26 05:02:52;;;;;;;11.00;8.50;;;;;;;12.70;100.00;101473.38;105618;1258;74070;-61
2023/09/26 05:05:21;;;;;;;9.60;8.20;;;;;;;12.75;100.00;101476.04;105558;1257;69180;-62
2023/09/26 05:07:49;;;;;;;12.20;9.50;;;;;;;12.81;100.00;101478.68;105480;1251;69068;-64
2023/09/26 05:10:18;;;;;;;12.10;9.20;;;;;;;12.87;100.00;101478.84;105561;1257;73829;-62
2023/09/26 05:12:46;;;;;;;12.80;9.90;;;;;;;12.95;100.00;101478.79;105549;1257;83853;-62
2023/09/26 05:15:16;;;;;;;12.10;9.50;;;;;;;13.01;100.00;101476.34;105660;1254;72518;-61
2023/09/26 05:17:49;;;;;;;13.90;11.00;;;;;;;13.07;100.00;101472.45;106968;1251;68965;-61
2023/09/26 05:20:18;;;;;;;12.30;9.80;;;;;;;13.14;100.00;101468.92;105619;1256;69076;-62
2023/09/26 05:22:48;;;;;;;12.20;10.10;;;;;;;13.19;100.00;101464.90;105803;1256;73802;-62
2023/09/26 05:25:16;;;;;;;11.50;9.50;;;;;;;13.25;100.00;101463.67;105753;1251;81746;-61
2023/09/26 05:27:45;;;;;;;10.70;9.40;;;;;;;13.32;100.00;101465.23;105980;1257;73523;-62
2023/09/26 05:30:14;;;;;;;12.30;9.50;;;;;;;13.38;100.00;101462.23;105601;1257;69070;-61
2023/09/26 05:32:42;;;;;;;12.50;9.90;;;;;;;13.46;100.00;101463.90;105732;1255;69185;-62
2023/09/26 05:35:11;;;;;;;12.40;9.90;;;;;;;13.51;100.00;101463.38;105582;1255;75035;-61
2023/09/26 05:37:39;;;;;;;11.60;9.40;;;;;;;13.56;100.00;101462.71;105798;1254;83879;-61
2023/09/26 05:40:09;;;;;;;11.10;8.90;;;;;;;13.60;100.00;101464.50;105835;1251;72386;-60
2023/09/26 05:42:39;;;;;;;10.10;9.00;;;;;;;13.66;100.00;101463.27;105656;1256;69141;-62
2023/09/26 05:45:09;;;;;;;11.70;9.80;;;;;;;13.70;100.00;101465.06;105592;1256;69144;-61
2023/09/26 05:47:37;;;;;;;13.90;9.90;;;;;;;13.77;100.00;101466.42;105896;1257;75220;-61
2023/09/26 05:50:06;;;;;;;11.50;9.90;;;;;;;13.81;100.00;101460.48;106071;1258;82290;-62
2023/09/26 05:52:35;;;;;;;12.50;9.90;;;;;;;13.87;100.00;101458.36;105854;1258;72616;-62
2023/09/26 05:55:05;;;;;;;13.00;9.60;;;;;;;13.92;100.00;101462.90;105656;1251;69229;-61
2023/09/26 05:57:33;;;;;;;;;;;;;;;13.97;100.00;101458.73;105649;1257;69107;-61
2023/09/26 06:00:05;;;;;;;13.10;10.10;;;;;;;14.01;100.00;101460.00;105722;1254;74749;-59
2023/09/26 06:02:37;;;;;;;13.60;10.90;;;;;;;14.06;100.00;101463.69;105715;1257;83198;-60
2023/09/26 06:05:06;;;;;;;14.60;11.20;;;;;;;14.09;100.00;101463.39;105672;1254;73808;-60
2023/09/26 06:07:35;;;;;;;15.10;11.40;;;;;;;14.14;100.00;101463.76;105711;1255;69118;-61
2023/09/26 06:10:05;;;;;;;17.00;11.40;;;;;;;14.18;100.00;101465.69;105948;1251;69180;-61
2023/09/26 06:12:38;;;;;;;18.10;12.20;;;;;;;14.23;100.00;101463.44;105615;1256;74824;-61
2023/09/26 06:15:09;;;;;;;16.90;11.90;;;;;;;14.27;100.00;101465.56;105736;1255;84243;-61
2023/09/26 06:17:39;;;;;;;15.20;11.60;;;;;;;14.34;100.00;101462.16;105737;1256;74009;-61
2023/09/26 06:20:09;;;;;;;17.30;12.20;;;;;;;14.40;100.00;101461.41;105708;1256;69213;-62
2023/09/26 06:22:38;;;;;;;17.00;12.00;;;;;;;14.48;100.00;101461.84;105501;1254;316795;-61
2023/09/26 06:25:06;;;;;;;17.20;12.10;;;;;;;14.56;100.00;101455.79;105605;1256;72947;-61
2023/09/26 06:27:38;;;;;;;15.20;12.30;;;;;;;14.64;100.00;101453.89;105826;1255;83377;-64
2023/09/26 06:30:09;;;;;;;15.60;11.70;;;;;;;14.73;100.00;101458.11;105495;1256;73847;-63
2023/09/26 06:32:37;;;;;;;15.70;12.30;;;;;;;14.82;100.00;101462.90;105536;1257;69182;-62
2023/09/26 06:35:06;;;;;;;15.60;12.60;;;;;;;14.89;100.00;101461.58;105520;1256;69196;-62
2023/09/26 06:37:34;;;;;;;15.50;12.20;;;;;;;14.97;100.00;101463.58;107308;1251;74866;-63
2023/09/26 06:40:06;;;;;;;15.60;12.70;;;;;;;15.05;100.00;101469.77;105515;1251;81828;-63
2023/09/26 06:42:35;;;;;;;20.20;13.90;;;;;;;15.11;100.00;101468.29;105577;1251;73685;-62
2023/09/26 06:45:09;;;;;;;18.80;12.40;;;;;;;15.15;100.00;101467.95;105527;1251;69166;-63
2023/09/26 06:47:38;;;;;;;18.40;13.90;;;;;;;15.20;100.00;101468.84;105546;1251;69086;-63
2023/09/26 06:50:10;;;;;;;19.20;14.40;;;;;;;15.22;100.00;101465.23;105578;1256;73459;-63
2023/09/26 06:52:44;;;;;;;20.00;15.00;;;;;;;15.27;100.00;101468.21;105553;1251;82155;-62
2023/09/26 06:55:12;;;;;;;19.60;15.70;;;;;;;15.32;100.00;101465.35;105551;1256;73746;-63
2023/09/26 06:57:41;;;;;;;23.50;16.20;;;;;;;15.41;100.00;101468.71;105528;1256;69318;-63
2023/09/26 07:00:16;;;;;;;21.70;16.10;;;;;;;15.46;100.00;101469.38;105653;1256;69119;-62
2023/09/26 07:02:46;;;;;;;20.70;16.40;;;;;;;15.52;100.00;101467.73;105553;1251;73868;-62
2023/09/26 07:05:16;;;;;;;25.70;17.50;;;;;;;15.55;100.00;101470.95;105561;1251;83351;-62
2023/09/26 07:07:44;;;;;;;22.70;17.60;;;;;;;15.58;100.00;101471.16;105587;1251;73316;-62
2023/09/26 07:10:13;;;;;;;24.80;17.30;;;;;;;15.65;100.00;101471.09;105520;1256;69170;-63
2023/09/26 07:12:41;;;;;;;22.90;17.70;;;;;;;15.70;100.00;101474.78;105537;1256;69161;-63
2023/09/26 07:15:14;;;;;;;25.30;18.30;;;;;;;15.75;100.00;101473.33;105587;1251;74608;-63
2023/09/26 07:17:42;;;;;;;23.80;18.50;;;;;;;15.80;100.00;101477.54;105634;1251;83453;-63
2023/09/26 07:20:13;;;;;;;26.50;18.70;;;;;;;15.84;100.00;101480.35;105580;1251;73287;-63
2023/09/26 07:22:44;;;;;;;25.70;19.40;;;;;;;15.90;100.00;101478.36;105641;1252;69177;-62
2023/09/26 07:25:13;;;;;;;26.10;18.80;;;;;;;15.93;100.00;101482.96;105449;1251;69142;-63
2023/09/26 07:27:42;;;;;;;23.60;18.10;;;;;;;16.00;100.00;101485.52;105582;1256;75105;-63
2023/09/26 07:30:14;;;;;;;26.80;19.00;;;;;;;16.07;100.00;101489.46;105536;1257;82475;-63
2023/09/26 07:32:43;;;;;;;26.50;20.60;;;;;;;16.11;100.00;101487.86;105617;1256;73757;-63
2023/09/26 07:35:12;;;;;;;26.60;19.30;;;;;;;16.15;100.00;101488.56;105619;1256;69102;-62
2023/09/26 07:37:41;;;;;;;23.30;17.80;;;;;;;16.21;100.00;101488.30;105554;1256;69244;-63
2023/09/26 07:40:10;;;;;;;27.20;20.20;;;;;;;16.29;100.00;101491.15;105567;1251;72780;-63
2023/09/26 07:42:39;;;;;;;25.50;19.10;;;;;;;16.36;100.00;101491.56;105531;1251;81773;-62
2023/09/26 07:45:08;;;;;;;28.10;20.30;;;;;;;16.43;100.00;101485.94;105588;1251;72665;-62
2023/09/26 07:47:37;;;;;;;30.70;20.20;;;;;;;16.50;100.00;101483.30;105736;1251;69152;-63
2023/09/26 07:50:06;;;;;;;26.40;20.00;;;;;;;16.57;100.00;101481.09;105727;1251;69634;-63
2023/09/26 07:52:34;;;;;;;26.30;19.10;;;;;;;16.66;100.00;101479.62;105545;1251;73871;-63
2023/09/26 07:55:04;;;;;;;25.70;19.10;;;;;;;16.75;100.00;101484.00;105585;1256;82276;-63
2023/09/26 07:57:32;;;;;;;23.60;19.20;;;;;;;16.84;100.00;101482.71;105587;1251;73540;-63
2023/09/26 08:00:01;;;;;;;26.30;20.20;;;;;;;16.90;100.00;101487.54;105551;1251;69176;-63
2023/09/26 08:02:34;;;;;;;25.00;19.70;;;;;;;16.96;100.00;101486.73;105583;1254;69109;-62
2023/09/26 08:05:03;;;;;;;25.50;19.90;;;;;;;17.04;100.00;101489.23;105751;1251;74561;-63
2023/09/26 08:07:32;;;;;;;25.00;19.40;;;;;;;17.09;100.00;101490.02;105646;1252;82850;-63
2023/09/26 08:10:01;;;;;;;25.20;20.00;;;;;;;17.15;100.00;101490.11;105671;1257;73702;-63
2023/09/26 08:12:31;;;;;;;25.50;19.70;;;;;;;17.21;100.00;101490.73;105564;1251;69327;-63
2023/09/26 08:14:59;;;;;;;25.50;19.20;;;;;;;17.25;100.00;101487.71;105637;1251;69161;-63
2023/09/26 08:17:28;;;;;;;24.00;19.30;;;;;;;17.26;100.00;101483.95;105604;1251;74625;-63
2023/09/26 08:19:56;;;;;;;27.00;19.00;;;;;;;17.30;100.00;101486.71;105630;1253;83161;-63
2023/09/26 08:22:25;;;;;;;26.30;18.70;;;;;;;17.36;100.00;101487.70;105530;1256;74222;-63
2023/09/26 08:24:54;;;;;;;24.80;19.10;;;;;;;17.42;100.00;101490.26;105562;1251;69175;-63
2023/09/26 08:27:24;;;;;;;22.90;18.10;;;;;;;17.47;100.00;101489.97;105586;1251;69031;-63
2023/09/26 08:29:52;;;;;;;23.90;17.90;;;;;;;17.56;100.00;101493.61;105645;1256;74444;-63
2023/09/26 08:32:20;;;;;;;22.70;18.80;;;;;;;17.64;100.00;101490.24;105538;1251;83754;-63
2023/09/26 08:34:49;;;;;;;24.10;19.30;;;;;;;17.71;100.00;101489.53;105618;1256;73566;-63
2023/09/26 08:37:17;;;;;;;21.20;18.10;;;;;;;17.78;100.00;101483.89;105546;1256;69173;-63
2023/09/26 08:39:47;;;;;;;22.60;17.90;;;;;;;17.85;100.00;101486.21;105582;1251;69152;-63
2023/09/26 08:42:28;;;;;;;19.70;17.70;;;;;;;17.92;100.00;101481.24;105577;1251;73842;-63
2023/09/26 08:44:57;;;;;;;21.20;17.20;;;;;;;17.98;100.00;101476.52;105579;1251;82120;-63
2023/09/26 08:47:27;;;;;;;20.90;17.60;;;;;;;18.08;100.00;101478.84;105613;1251;72750;-63
2023/09/26 08:49:56;;;;;;;20.70;18.40;;;;;;;18.16;100.00;101477.02;105469;1251;69356;-63
2023/09/26 08:52:25;;;;;;;21.90;18.50;;;;;;;18.25;100.00;101476.71;105611;1256;69116;-63
2023/09/26 08:54:54;;;;;;;22.70;18.40;;;;;;;18.38;100.00;101474.98;105672;1256;74881;-63
2023/09/26 08:57:23;;;;;;;22.50;18.50;;;;;;;18.53;100.00;101469.03;105604;1256;83433;-63
2023/09/26 08:59:54;;;;;;;21.60;18.00;;;;;;;18.67;100.00;101467.08;105592;1250;74069;-63
2023/09/26 09:02:22;;;;;;;23.30;19.50;;;;;;;18.78;100.00;101464.57;105617;1251;69140;-63
2023/09/26 09:04:50;;;;;;;22.20;17.80;;;;;;;18.88;100.00;101460.81;105637;1255;69175;-62
2023/09/26 09:07:19;;;;;;;19.50;16.90;;;;;;;18.99;100.00;101458.14;105626;1254;74765;-63
2023/09/26 09:10:10;;;;;;;20.20;18.00;;;;;;;19.16;100.00;101456.07;105624;1254;83256;-63
2023/09/26 09:12:44;;;;;;;19.60;16.40;;;;;;;19.36;99.93;101455.31;105555;1252;72811;-62
2023/09/26 09:15:15;;;;;;;20.50;18.10;;;;;;;19.53;99.74;101454.86;105579;1251;69164;-63
2023/09/26 09:17:44;;;;;;;20.60;17.60;;;;;;;19.73;99.73;101456.05;105578;1253;69093;-62
2023/09/26 09:20:16;;;;;;;19.10;16.90;;;;;;;19.81;98.63;101456.64;105595;1251;75021;-63
2023/09/26 09:22:48;;;;;;;20.00;16.50;;;;;;;19.84;98.13;101453.12;105573;1256;83059;-63
2023/09/26 09:25:17;;;;;;;18.70;16.70;;;;;;;19.90;98.02;101449.17;105678;1254;73398;-62
2023/09/26 09:27:45;;;;;;;19.10;16.70;;;;;;;20.00;97.59;101447.70;105599;1255;69222;-63
2023/09/26 09:30:19;;;;;;;19.00;16.90;;;;;;;20.07;97.29;101446.05;105716;1252;69209;-63
2023/09/26 09:32:49;;;;;;;20.50;18.10;;;;;;;20.15;96.70;101444.50;105633;1251;73979;-63
2023/09/26 09:35:18;;;;;;;20.90;18.40;;;;;;;20.23;96.27;101443.50;105625;1254;83358;-63
2023/09/26 09:37:49;;;;;;;21.10;18.70;;;;;;;20.29;96.07;101441.31;105656;1255;73940;-63
2023/09/26 09:40:19;;;;;;;23.70;17.60;;;;;;;20.42;95.83;101439.98;105565;1256;69117;-63
2023/09/26 09:42:49;;;;;;;22.20;18.80;;;;;;;20.65;95.94;101439.16;105589;1251;69106;-63
2023/09/26 09:45:18;;;;;;;20.40;18.30;;;;;;;20.85;95.72;101436.45;105577;1256;75131;-63
2023/09/26 09:47:48;;;;;;;22.20;19.80;;;;;;;21.09;95.14;101435.81;105616;1251;83679;-63
2023/09/26 09:50:16;;;;;;;25.60;20.10;;;;;;;21.26;94.26;101436.67;105554;1251;73642;-63
2023/09/26 09:52:48;;;;;;;23.90;20.40;;;;;;;21.36;93.58;101436.71;105691;1251;69127;-62
2023/09/26 09:55:24;;;;;;;22.70;20.20;;;;;;;21.45;93.15;101432.55;105580;1256;69205;-63
2023/09/26 09:57:53;;;;;;;23.20;20.80;;;;;;;21.47;92.48;101432.09;105611;1251;74809;-63
2023/09/26 10:00:24;;;;;;;23.50;20.00;;;;;;;21.47;91.78;101430.49;105610;1251;83641;-63
2023/09/26 10:02:55;;;;;;;23.50;20.50;;;;;;;21.52;91.62;101429.95;105532;1251;72705;-63
2023/09/26 10:05:24;;;;;;;22.10;19.50;;;;;;;21.59;91.35;101431.13;105420;1256;69202;-63
2023/09/26 10:07:54;;;;;;;23.50;20.70;;;;;;;21.66;90.92;101429.44;105763;1253;70721;-63
2023/09/26 10:10:24;;;;;;;;;;;;;;;21.65;90.42;101426.98;105484;1257;74806;-63
2023/09/26 10:12:53;;;;;;;24.20;20.20;;;;;;;21.86;90.60;101424.52;105654;1254;83440;-63
2023/09/26 10:16:17;;;;;;;23.70;21.20;;;;;;;22.21;90.18;101421.88;105430;1257;73652;-63
2023/09/26 10:18:49;;;;;;;23.90;20.50;;;;;;;22.46;89.48;101417.70;105414;1257;69106;-62
2023/09/26 10:21:20;;;;;;;26.10;20.60;;;;;;;22.49;88.54;101420.68;105580;1251;69066;-62
2023/09/26 10:24:15;;;;;;;23.70;21.10;;;;;;;22.53;88.24;101411.85;105558;1255;73862;-61
2023/09/26 10:26:49;;;;;;;21.90;19.60;;;;;;;22.82;88.23;101411.33;105748;1255;83075;-62
2023/09/26 10:29:24;;;;;;;26.60;21.30;;;;;;;23.12;87.79;101408.67;105650;1254;72315;-62
2023/09/26 10:31:53;;;;;;;26.20;22.50;;;;;;;23.35;86.99;101407.86;105547;1251;69206;-62
2023/09/26 10:34:24;;;;;;;26.70;21.10;;;;;;;23.50;85.78;101404.06;105607;1254;69113;-62
2023/09/26 10:37:07;;;;;;;26.20;22.40;;;;;;;23.68;85.37;101397.34;105626;1251;74797;-61
2023/09/26 10:39:37;;;;;;;25.10;22.40;;;;;;;23.88;84.86;101401.86;105548;1254;81329;-62
2023/09/26 10:42:22;;;;;;;26.10;20.70;;;;;;;24.06;84.21;101401.20;105571;1251;72662;-62
2023/09/26 10:44:53;;;;;;;24.70;21.60;;;;;;;24.24;83.15;101391.90;105022;1258;70538;-62
2023/09/26 10:47:22;;;;;;;27.20;23.50;;;;;;;24.32;82.36;101394.02;105076;1258;69873;-62
2023/09/26 10:49:51;;;;;;;25.70;22.10;;;;;;;24.42;81.96;101389.13;105097;1260;75062;-62
2023/09/26 10:52:23;;;;;;;25.00;22.30;;;;;;;24.53;81.46;101382.89;105145;1261;83385;-62
2023/09/26 10:54:52;;;;;;;22.70;20.20;;;;;;;24.70;81.87;101378.77;104983;1258;72661;-62
2023/09/26 10:57:21;;;;;;;23.90;20.20;;;;;;;24.90;81.30;101378.98;105252;1258;69156;-62
2023/09/26 10:59:49;;;;;;;24.20;20.80;;;;;;;24.90;80.39;101377.67;105116;1258;69080;-62
2023/09/26 11:02:18;;;;;;;22.80;20.20;;;;;;;24.90;79.73;101378.98;105201;1257;75281;-62
2023/09/26 11:04:46;;;;;;;23.60;21.00;;;;;;;24.84;78.94;101378.20;105374;1251;82972;-62
2023/09/26 11:07:15;;;;;;;23.30;20.60;;;;;;;24.80;78.69;101373.73;105536;1251;72608;-62
2023/09/26 11:09:44;;;;;;;21.80;19.50;;;;;;;24.82;78.60;101369.58;105565;1253;69321;-61
2023/09/26 11:12:13;;;;;;;24.50;19.60;;;;;;;24.98;78.96;101370.75;105612;1255;69199;-62
2023/09/26 11:14:41;;;;;;;23.80;19.90;;;;;;;25.16;78.38;101371.44;105406;1256;73895;-61
2023/09/26 11:17:10;;;;;;;23.10;20.40;;;;;;;25.34;77.99;101368.36;105558;1251;82762;-62